• Join FlightAware (Why Join?)
  • Login
  • US Flag GB Flag 
10:09 EST


 

Airport Tracker/Info


-or-


 

Live Flight TrackerFlight Track Log ✈ AFL150 ✈ 23-Dec-2013 ✈ UUEE / SVO - MUHA / HAV

Flight Track Log - Related Links

Times and Time Zones

All times are in EST time to prevent confusion due to time zone crossing. See the AFL150 flight status page for this flight to view local times or setup timezone preferences in your user account.

Time Position Orientation Groundspeed Altitude Reporting Facility
EST Latitude Longitude Course Direction KTS MPH feet Rate Location/Type
04:31 56.0571 37.2064 314° West  Level FlightAware Approximate
04:32 56.1386 37.0546 314° West  Level FlightAware Approximate
04:33 56.2200 36.9021 314° West  Level FlightAware Approximate
04:34 56.3012 36.7490 314° West  Level FlightAware Approximate
04:35 56.3822 36.5952 314° West  Level FlightAware Approximate
04:36 56.4630 36.4407 313° West  Level FlightAware Approximate
04:37 56.5436 36.2856 313° West  Level FlightAware Approximate
04:38 56.6240 36.1299 313° West  Level FlightAware Approximate
04:39 56.7042 35.9735 313° West  Level FlightAware Approximate
04:40 56.7842 35.8164 313° West  Level FlightAware Approximate
04:41 56.8640 35.6586 313° West  Level FlightAware Approximate
04:42 56.9436 35.5002 313° West  Level FlightAware Approximate
04:43 57.0231 35.3411 313° West  Level FlightAware Approximate
04:44 57.1023 35.1813 312° West  Level FlightAware Approximate
04:45 57.1813 35.0208 312° West  Level FlightAware Approximate
04:46 57.2601 34.8597 312° West  Level FlightAware Approximate
04:47 57.3387 34.6978 312° West  Level FlightAware Approximate
04:48 57.4171 34.5353 312° West  Level FlightAware Approximate
04:49 57.4906 34.3743 309° West  Level FlightAware Approximate
04:50 57.5647 34.2043 309° West  Level FlightAware Approximate
04:51 57.6386 34.0337 309° West  Level FlightAware Approximate
04:52 57.7123 33.8624 309° West  Level FlightAware Approximate
04:53 57.7858 33.6904 309° West  Level FlightAware Approximate
04:54 57.8591 33.5177 309° West  Level FlightAware Approximate
04:55 57.9320 33.3443 308° West  Level FlightAware Approximate
04:56 58.0048 33.1702 308° West  Level FlightAware Approximate
04:57 58.0773 32.9953 308° West  Level FlightAware Approximate
04:58 58.1496 32.8198 308° West  Level FlightAware Approximate
04:59 58.2216 32.6435 308° West  Level FlightAware Approximate
05:00 58.2934 32.4666 308° West  Level FlightAware Approximate
05:01 58.3650 32.2889 308° West  Level FlightAware Approximate
05:02 58.4363 32.1105 307° West  Level FlightAware Approximate
05:03 58.5074 31.9313 307° West  Level FlightAware Approximate
05:04 58.5782 31.7515 307° West  Level FlightAware Approximate
05:05 58.6487 31.5709 307° West  Level FlightAware Approximate
05:06 58.7190 31.3896 307° West  Level FlightAware Approximate
05:07 58.7891 31.2075 307° West  Level FlightAware Approximate
05:08 58.8589 31.0247 306° West  Level FlightAware Approximate
05:09 58.9284 30.8412 306° West  Level FlightAware Approximate
05:10 58.9977 30.6570 306° West  Level FlightAware Approximate
05:11 59.0667 30.4720 306° West  Level FlightAware Approximate
05:12 59.1354 30.2862 306° West  Level FlightAware Approximate
05:13 59.2039 30.0997 306° West  Level FlightAware Approximate
05:14 59.2721 29.9125 306° West  Level FlightAware Approximate
05:15 59.3400 29.7245 305° West  Level FlightAware Approximate
05:16 59.4077 29.5358 305° West  Level FlightAware Approximate
05:17 59.4751 29.3463 305° West  Level FlightAware Approximate
05:18 59.5422 29.1560 305° West  Level FlightAware Approximate
05:19 59.6090 28.9650 305° West  Level FlightAware Approximate
05:20 59.6756 28.7733 305° West  Level FlightAware Approximate
05:21 59.7419 28.5807 304° West  Level FlightAware Approximate
05:22 59.8079 28.3874 304° West  Level FlightAware Approximate
05:23 59.8736 28.1934 304° West  Level FlightAware Approximate
05:24 59.9390 27.9986 304° West  Level FlightAware Approximate
05:25 60.0042 27.8030 304° West  Level FlightAware Approximate
05:26 60.0690 27.6066 304° West  Level FlightAware Approximate
05:27 60.1335 27.4095 303° West  Level FlightAware Approximate
05:28 60.1978 27.2116 303° West  Level FlightAware Approximate
05:29 60.2618 27.0129 303° West  Level FlightAware Approximate
05:30 60.3254 26.8134 303° West  Level FlightAware Approximate
05:31 60.3888 26.6132 303° West  Level FlightAware Approximate
05:32 60.4519 26.4122 303° West  Level FlightAware Approximate
05:33 60.5146 26.2104 302° West  Level FlightAware Approximate
05:34 60.5771 26.0078 302° West  Level FlightAware Approximate
05:35 60.6392 25.8044 302° West  Level FlightAware Approximate
05:36 60.7011 25.6003 302° West  Level FlightAware Approximate
05:37 60.7626 25.3954 302° West  Level FlightAware Approximate
05:38 60.8238 25.1896 301° West  Level FlightAware Approximate
05:39 60.8847 24.9832 301° West  Level FlightAware Approximate
05:40 60.9453 24.7759 301° West  Level FlightAware Approximate
05:41 61.0056 24.5678 301° West  Level FlightAware Approximate
05:42 61.0655 24.3589 301° West  Level FlightAware Approximate
05:43 61.1251 24.1493 301° West  Level FlightAware Approximate
05:44 61.1844 23.9388 300° West  Level FlightAware Approximate
05:45 61.2434 23.7276 300° West  Level FlightAware Approximate
05:46 61.3020 23.5155 300° West  Level FlightAware Approximate
05:47 61.3603 23.3027 300° West  Level FlightAware Approximate
05:48 61.4183 23.0891 300° West  Level FlightAware Approximate
05:49 61.4759 22.8747 299° West  Level FlightAware Approximate
05:50 61.5332 22.6595 299° West  Level FlightAware Approximate
05:51 61.5901 22.4435 299° West  Level FlightAware Approximate
05:52 61.6467 22.2267 299° West  Level FlightAware Approximate
05:53 61.7030 22.0091 299° West  Level FlightAware Approximate
05:54 61.7589 21.7908 298° West  Level FlightAware Approximate
05:55 61.8145 21.5716 298° West  Level FlightAware Approximate
05:56 61.8697 21.3517 298° West  Level FlightAware Approximate
05:57 61.9246 21.1309 298° West  Level FlightAware Approximate
05:58 61.9791 20.9094 298° West  Level FlightAware Approximate
05:59 62.0333 20.6870 298° West  Level FlightAware Approximate
06:00 62.0871 20.4639 297° West  Level FlightAware Approximate
06:01 62.1405 20.2400 297° West  Level FlightAware Approximate
06:02 62.1936 20.0153 297° West  Level FlightAware Approximate
06:03 62.2463 19.7898 297° West  Level FlightAware Approximate
06:04 62.2986 19.5636 297° West  Level FlightAware Approximate
06:05 62.3506 19.3365 296° West  Level FlightAware Approximate
06:06 62.4022 19.1087 296° West  Level FlightAware Approximate
06:07 62.4534 18.8800 296° West  Level FlightAware Approximate
06:08 62.5043 18.6506 296° West  Level FlightAware Approximate
06:09 62.5548 18.4204 296° West  Level FlightAware Approximate
06:10 62.6049 18.1894 295° West  Level FlightAware Approximate
06:11 62.6546 17.9577 295° West  Level FlightAware Approximate
06:12 62.7039 17.7252 295° West  Level FlightAware Approximate
06:13 62.7529 17.4919 295° West  Level FlightAware Approximate
06:14 62.8014 17.2578 294° West  Level FlightAware Approximate
06:15 62.8496 17.0230 294° West  Level FlightAware Approximate
06:16 62.8974 16.7874 294° West  Level FlightAware Approximate
06:17 62.9448 16.5510 294° West  Level FlightAware Approximate
06:18 62.9918 16.3139 294° West  Level FlightAware Approximate
06:19 63.0384 16.0760 293° West  Level FlightAware Approximate
06:20 63.0845 15.8373 293° West  Level FlightAware Approximate
06:21 63.1303 15.5979 293° West  Level FlightAware Approximate
06:22 63.1757 15.3577 293° West  Level FlightAware Approximate
06:23 63.2207 15.1168 293° West  Level FlightAware Approximate
06:24 63.2653 14.8751 292° West  Level FlightAware Approximate
06:25 63.3094 14.6327 292° West  Level FlightAware Approximate
06:26 63.3532 14.3896 292° West  Level FlightAware Approximate
06:27 63.3965 14.1457 292° West  Level FlightAware Approximate
06:28 63.4394 13.9011 292° West  Level FlightAware Approximate
06:29 63.4819 13.6557 291° West  Level FlightAware Approximate
06:30 63.5240 13.4096 291° West  Level FlightAware Approximate
06:31 63.5656 13.1628 291° West  Level FlightAware Approximate
06:32 63.6068 12.9153 291° West  Level FlightAware Approximate
06:33 63.6476 12.6671 290° West  Level FlightAware Approximate
06:34 63.6880 12.4181 290° West  Level FlightAware Approximate
06:35 63.7279 12.1685 290° West  Level FlightAware Approximate
06:36 63.7674 11.9181 290° West  Level FlightAware Approximate
06:37 63.8065 11.6671 290° West  Level FlightAware Approximate
06:38 63.8451 11.4153 289° West  Level FlightAware Approximate
06:39 63.8833 11.1629 289° West  Level FlightAware Approximate
06:40 63.9211 10.9098 289° West  Level FlightAware Approximate
06:41 63.9584 10.6560 289° West  Level FlightAware Approximate
06:42 63.9953 10.4015 288° West  Level FlightAware Approximate
06:43 64.0317 10.1464 288° West  Level FlightAware Approximate
06:44 64.0676 9.8906 288° West  Level FlightAware Approximate
06:45 64.1032 9.6341 288° West  Level FlightAware Approximate
06:46 64.1382 9.3770 287° West  Level FlightAware Approximate
06:47 64.1728 9.1193 287° West  Level FlightAware Approximate
06:48 64.2070 8.8609 287° West  Level FlightAware Approximate
06:49 64.2407 8.6019 287° West  Level FlightAware Approximate
06:50 64.2739 8.3422 287° West  Level FlightAware Approximate
06:51 64.3067 8.0819 286° West  Level FlightAware Approximate
06:52 64.3390 7.8210 286° West  Level FlightAware Approximate
06:53 64.3709 7.5595 286° West  Level FlightAware Approximate
06:54 64.4023 7.2974 286° West  Level FlightAware Approximate
06:55 64.4332 7.0347 285° West  Level FlightAware Approximate
06:56 64.4636 6.7714 285° West  Level FlightAware Approximate
06:57 64.4936 6.5076 285° West  Level FlightAware Approximate
06:58 64.5231 6.2431 285° West  Level FlightAware Approximate
06:59 64.5521 5.9781 284° West  Level FlightAware Approximate
07:00 64.5807 5.7126 284° West  Level FlightAware Approximate
07:01 64.6088 5.4464 284° West  Level FlightAware Approximate
07:02 64.6364 5.1798 284° West  Level FlightAware Approximate
07:03 64.6635 4.9125 283° West  Level FlightAware Approximate
07:04 64.6901 4.6448 283° West  Level FlightAware Approximate
07:05 64.7162 4.3766 283° West  Level FlightAware Approximate
07:06 64.7419 4.1078 283° West  Level FlightAware Approximate
07:07 64.7671 3.8385 282° West  Level FlightAware Approximate
07:08 64.7917 3.5687 282° West  Level FlightAware Approximate
07:09 64.8159 3.2984 282° West  Level FlightAware Approximate
07:10 64.8396 3.0277 282° West  Level FlightAware Approximate
07:11 64.8628 2.7565 282° West  Level FlightAware Approximate
07:12 64.8855 2.4848 281° West  Level FlightAware Approximate
07:13 64.9078 2.2127 281° West  Level FlightAware Approximate
07:14 64.9295 1.9401 281° West  Level FlightAware Approximate
07:15 64.9507 1.6671 281° West  Level FlightAware Approximate
07:16 64.9714 1.3936 280° West  Level FlightAware Approximate
07:17 64.9916 1.1197 280° West  Level FlightAware Approximate
07:18 65.0113 0.8455 280° West  Level FlightAware Approximate
07:19 65.0305 0.5708 280° West  Level FlightAware Approximate
07:20 65.0493 0.2957 279° West  Level FlightAware Approximate
07:21 65.0675 0.0203 279° West  Level FlightAware Approximate
07:22 65.0852 -0.2556 279° West  Level FlightAware Approximate
07:23 65.1023 -0.5317 279° West  Level FlightAware Approximate
07:24 65.1190 -0.8083 278° West  Level FlightAware Approximate
07:25 65.1352 -1.0852 278° West  Level FlightAware Approximate
07:26 65.1508 -1.3624 278° West  Level FlightAware Approximate
07:27 65.1660 -1.6399 278° West  Level FlightAware Approximate
07:28 65.1806 -1.9177 277° West  Level FlightAware Approximate
07:29 65.1947 -2.1959 277° West  Level FlightAware Approximate
07:30 65.2083 -2.4743 277° West  Level FlightAware Approximate
07:31 65.2214 -2.7530 277° West  Level FlightAware Approximate
07:32 65.2340 -3.0320 276° West  Level FlightAware Approximate
07:33 65.2460 -3.3113 276° West  Level FlightAware Approximate
07:34 65.2576 -3.5908 276° West  Level FlightAware Approximate
07:35 65.2686 -3.8705 276° West  Level FlightAware Approximate
07:36 65.2791 -4.1505 275° West  Level FlightAware Approximate
07:37 65.2891 -4.4306 275° West  Level FlightAware Approximate
07:38 65.2986 -4.7110 275° West  Level FlightAware Approximate
07:39 65.3075 -4.9916 274° West  Level FlightAware Approximate
07:40 65.3159 -5.2724 274° West  Level FlightAware Approximate
07:41 65.3238 -5.5533 274° West  Level FlightAware Approximate
07:42 65.3311 -5.8344 274° West  Level FlightAware Approximate
07:43 65.3380 -6.1157 273° West  Level FlightAware Approximate
07:44 65.3443 -6.3971 273° West  Level FlightAware Approximate
07:45 65.3501 -6.6786 273° West  Level FlightAware Approximate
07:46 65.3554 -6.9602 273° West  Level FlightAware Approximate
07:47 65.3601 -7.2420 272° West  Level FlightAware Approximate
07:48 65.3643 -7.5238 272° West  Level FlightAware Approximate
07:49 65.3680 -7.8058 272° West  Level FlightAware Approximate
07:50 65.3712 -8.0878 272° West  Level FlightAware Approximate
07:51 65.3739 -8.3699 271° West  Level FlightAware Approximate
07:52 65.3760 -8.6520 271° West  Level FlightAware Approximate
07:53 65.3776 -8.9341 271° West  Level FlightAware Approximate
07:54 65.3786 -9.2163 271° West  Level FlightAware Approximate
07:55 65.3792 -9.4985 270° West  Level FlightAware Approximate
07:56 65.3792 -9.7807 270° West  Level FlightAware Approximate
07:57 65.3787 -10.0630 270° West  Level FlightAware Approximate
07:58 65.3776 -10.3451 270° West  Level FlightAware Approximate
07:59 65.3761 -10.6273 269° West  Level FlightAware Approximate
08:00 65.3740 -10.9094 269° West  Level FlightAware Approximate
08:01 65.3714 -11.1915 269° West  Level FlightAware Approximate
08:02 65.3682 -11.4735 269° West  Level FlightAware Approximate
08:03 65.3645 -11.7554 268° West  Level FlightAware Approximate
08:04 65.3604 -12.0373 268° West  Level FlightAware Approximate
08:05 65.3556 -12.3190 268° West  Level FlightAware Approximate
08:06 65.3504 -12.6007 268° West  Level FlightAware Approximate
08:07 65.3446 -12.8822 267° West  Level FlightAware Approximate
08:08 65.3383 -13.1636 267° West  Level FlightAware Approximate
08:09 65.3315 -13.4449 267° West  Level FlightAware Approximate
08:10 65.3242 -13.7260 267° West  Level FlightAware Approximate
08:11 65.3163 -14.0070 266° West  Level FlightAware Approximate
08:12 65.3079 -14.2877 266° West  Level FlightAware Approximate
08:13 65.2990 -14.5683 266° West  Level FlightAware Approximate
08:14 65.2896 -14.8487 266° West  Level FlightAware Approximate
08:15 65.2796 -15.1289 265° West  Level FlightAware Approximate
08:16 65.2691 -15.4089 265° West  Level FlightAware Approximate
08:17 65.2581 -15.6886 265° West  Level FlightAware Approximate
08:18 65.2466 -15.9681 265° West  Level FlightAware Approximate
08:19 65.2346 -16.2474 264° West  Level FlightAware Approximate
08:20 65.2221 -16.5264 264° West  Level FlightAware Approximate
08:21 65.2090 -16.8051 264° West  Level FlightAware Approximate
08:22 65.1954 -17.0836 263° West  Level FlightAware Approximate
08:23 65.1813 -17.3617 263° West  Level FlightAware Approximate
08:24 65.1667 -17.6396 263° West  Level FlightAware Approximate
08:25 65.1516 -17.9171 263° West  Level FlightAware Approximate
08:26 65.1360 -18.1944 262° West  Level FlightAware Approximate
08:27 65.1198 -18.4713 262° West  Level FlightAware Approximate
08:28 65.1032 -18.7478 262° West  Level FlightAware Approximate
08:29 65.0860 -19.0240 262° West  Level FlightAware Approximate
08:30 65.0684 -19.2998 261° West  Level FlightAware Approximate
08:31 65.0502 -19.5753 261° West  Level FlightAware Approximate
08:32 65.0315 -19.8504 261° West  Level FlightAware Approximate
08:33 65.0123 -20.1251 261° West  Level FlightAware Approximate
08:34 64.9926 -20.3994 260° West  Level FlightAware Approximate
08:35 64.9724 -20.6733 260° West  Level FlightAware Approximate
08:36 64.9517 -20.9468 260° West  Level FlightAware Approximate
08:37 64.9305 -21.2198 260° West  Level FlightAware Approximate
08:38 64.9089 -21.4924 259° West  Level FlightAware Approximate
08:39 64.8867 -21.7646 259° West  Level FlightAware Approximate
08:40 64.8640 -22.0363 259° West  Level FlightAware Approximate
08:41 64.8408 -22.3075 259° West  Level FlightAware Approximate
08:42 64.8171 -22.5783 259° West  Level FlightAware Approximate
08:43 64.7930 -22.8486 258° West  Level FlightAware Approximate
08:44 64.7683 -23.1184 258° West  Level FlightAware Approximate
08:45 64.7431 -23.3877 258° West  Level FlightAware Approximate
08:46 64.7175 -23.6565 258° West  Level FlightAware Approximate
08:47 64.6914 -23.9248 257° West  Level FlightAware Approximate
08:48 64.6648 -24.1925 257° West  Level FlightAware Approximate
08:49 64.6377 -24.4597 257° West  Level FlightAware Approximate
08:50 64.6101 -24.7264 257° West  Level FlightAware Approximate
08:51 64.5821 -24.9926 256° West  Level FlightAware Approximate
08:52 64.5536 -25.2582 256° West  Level FlightAware Approximate
08:53 64.5246 -25.5232 256° West  Level FlightAware Approximate
08:54 64.4951 -25.7877 256° West  Level FlightAware Approximate
08:55 64.4651 -26.0516 255° West  Level FlightAware Approximate
08:56 64.4347 -26.3149 255° West  Level FlightAware Approximate
08:57 64.4038 -26.5777 255° West  Level FlightAware Approximate
08:58 64.3725 -26.8398 255° West  Level FlightAware Approximate
08:59 64.3406 -27.1013 254° West  Level FlightAware Approximate
09:00 64.3083 -27.3622 254° West  Level FlightAware Approximate
09:01 64.2756 -27.6225 254° West  Level FlightAware Approximate
09:02 64.2424 -27.8822 254° West  Level FlightAware Approximate
09:03 64.2087 -28.1413 253° West  Level FlightAware Approximate
09:04 64.1746 -28.3997 253° West  Level FlightAware Approximate
09:05 64.1400 -28.6575 253° West  Level FlightAware Approximate
09:06 64.1049 -28.9147 253° West  Level FlightAware Approximate
09:07 64.0694 -29.1712 253° West  Level FlightAware Approximate
09:08 64.0335 -29.4270 252° West  Level FlightAware Approximate
09:09 63.9971 -29.6821 252° West  Level FlightAware Approximate
09:10 63.9603 -29.9366 252° West  Level FlightAware Approximate
09:11 63.9230 -30.1905 252° West  Level FlightAware Approximate
09:12 63.8852 -30.4436 251° West  Level FlightAware Approximate
09:13 63.8471 -30.6961 251° West  Level FlightAware Approximate
09:14 63.8084 -30.9479 251° West  Level FlightAware Approximate
09:15 63.7694 -31.1990 251° West  Level FlightAware Approximate
09:16 63.7299 -31.4494 250° West  Level FlightAware Approximate
09:17 63.6900 -31.6991 250° West  Level FlightAware Approximate
09:18 63.6497 -31.9480 250° West  Level FlightAware Approximate
09:19 63.6089 -32.1963 250° West  Level FlightAware Approximate
09:20 63.5679 -32.4438 250° West  Level FlightAware Approximate
09:21 63.5264 -32.6908 249° West  Level FlightAware Approximate
09:22 63.4846 -32.9371 249° West  Level FlightAware Approximate
09:23 63.4423 -33.1826 249° West  Level FlightAware Approximate
09:24 63.3996 -33.4275 249° West  Level FlightAware Approximate
09:25 63.3565 -33.6716 249° West  Level FlightAware Approximate
09:26 63.3130 -33.9149 248° West  Level FlightAware Approximate
09:27 63.2690 -34.1576 248° West  Level FlightAware Approximate
09:28 63.2247 -34.3994 248° West  Level FlightAware Approximate
09:29 63.1799 -34.6406 248° West  Level FlightAware Approximate
09:30 63.1347 -34.8810 248° West  Level FlightAware Approximate
09:31 63.0891 -35.1206 247° West  Level FlightAware Approximate
09:32 63.0432 -35.3595 247° West  Level FlightAware Approximate
09:33 62.9968 -35.5976 247° West  Level FlightAware Approximate
09:34 62.9500 -35.8350 247° West  Level FlightAware Approximate
09:35 62.9028 -36.0716 246° West  Level FlightAware Approximate
09:36 62.8553 -36.3075 246° West  Level FlightAware Approximate
09:37 62.8072 -36.5424 246° West  Level FlightAware Approximate
09:38 62.7587 -36.7766 246° West  Level FlightAware Approximate
09:39 62.7098 -37.0100 246° West  Level FlightAware Approximate
09:40 62.6605 -37.2427 245° Southwest  Level FlightAware Approximate
09:41 62.6109 -37.4745 245° Southwest  Level FlightAware Approximate
09:42 62.5608 -37.7056 245° Southwest  Level FlightAware Approximate
09:43 62.5104 -37.9359 245° Southwest  Level FlightAware Approximate
09:44 62.4596 -38.1654 245° Southwest  Level FlightAware Approximate
09:45 62.4084 -38.3942 244° Southwest  Level FlightAware Approximate
09:46 62.3569 -38.6221 244° Southwest  Level FlightAware Approximate
09:47 62.3050 -38.8493 244° Southwest  Level FlightAware Approximate
09:48 62.2527 -39.0757 244° Southwest  Level FlightAware Approximate
09:49 62.2001 -39.3013 243° Southwest  Level FlightAware Approximate
09:50 62.1470 -39.5261 243° Southwest  Level FlightAware Approximate
09:51 62.0937 -39.7501 243° Southwest  Level FlightAware Approximate
09:52 62.0399 -39.9733 243° Southwest  Level FlightAware Approximate
09:53 61.9858 -40.1958 243° Southwest  Level FlightAware Approximate
09:54 61.9314 -40.4174 243° Southwest  Level FlightAware Approximate
09:55 61.8765 -40.6383 242° Southwest  Level FlightAware Approximate
09:56 61.8214 -40.8584 242° Southwest  Level FlightAware Approximate
09:57 61.7659 -41.0776 242° Southwest  Level FlightAware Approximate
09:58 61.7100 -41.2961 242° Southwest  Level FlightAware Approximate
09:59 61.6538 -41.5138 242° Southwest  Level FlightAware Approximate
10:00 61.5973 -41.7307 241° Southwest  Level FlightAware Approximate
10:01 61.5404 -41.9468 241° Southwest  Level FlightAware Approximate
10:02 61.4831 -42.1621 241° Southwest  Level FlightAware Approximate
10:03 61.4255 -42.3767 241° Southwest  Level FlightAware Approximate
10:04 61.3676 -42.5904 241° Southwest  Level FlightAware Approximate
10:05 61.3094 -42.8033 240° Southwest  Level FlightAware Approximate
10:06 61.2508 -43.0155 240° Southwest  Level FlightAware Approximate
10:07 61.1919 -43.2268 240° Southwest  Level FlightAware Approximate
10:08 61.1326 -43.4374 240° Southwest  Level FlightAware Approximate
10:09 61.0731 -43.6471 240° Southwest  Level FlightAware Approximate
10:10 61.0132 -43.8561 239° Southwest  Level FlightAware Approximate
10:11 60.9530 -44.0643 239° Southwest  Level FlightAware Approximate
10:12 60.8925 -44.2717 239° Southwest  Level FlightAware Approximate
10:13 60.8316 -44.4783 239° Southwest  Level FlightAware Approximate
10:14 60.7705 -44.6842 239° Southwest  Level FlightAware Approximate
10:15 60.7090 -44.8892 239° Southwest  Level FlightAware Approximate
10:16 60.6472 -45.0935 238° Southwest  Level FlightAware Approximate
10:17 60.5851 -45.2969 238° Southwest  Level FlightAware Approximate
10:18 60.5227 -45.4996 238° Southwest  Level FlightAware Approximate
10:19 60.4600 -45.7015 238° Southwest  Level FlightAware Approximate
10:20 60.3970 -45.9027 238° Southwest  Level FlightAware Approximate
10:21 60.3337 -46.1030 238° Southwest  Level FlightAware Approximate
10:22 60.2701 -46.3026 237° Southwest  Level FlightAware Approximate
10:23 60.2061 -46.5014 237° Southwest  Level FlightAware Approximate
10:24 60.1419 -46.6994 237° Southwest  Level FlightAware Approximate
10:25 60.0774 -46.8967 237° Southwest  Level FlightAware Approximate
10:26 60.0126 -47.0931 237° Southwest  Level FlightAware Approximate
10:27 59.9475 -47.2888 236° Southwest  Level FlightAware Approximate
10:28 59.8821 -47.4838 236° Southwest  Level FlightAware Approximate
10:29 59.8165 -47.6780 236° Southwest  Level FlightAware Approximate
10:30 59.7505 -47.8714 236° Southwest  Level FlightAware Approximate
10:31 59.6843 -48.0640 236° Southwest  Level FlightAware Approximate
10:32 59.6178 -48.2559 236° Southwest  Level FlightAware Approximate
10:33 59.5510 -48.4470 235° Southwest  Level FlightAware Approximate
10:34 59.4839 -48.6374 235° Southwest  Level FlightAware Approximate
10:35 59.4166 -48.8270 235° Southwest  Level FlightAware Approximate
10:36 59.3490 -49.0158 235° Southwest  Level FlightAware Approximate
10:37 59.2811 -49.2039 235° Southwest  Level FlightAware Approximate
10:38 59.2129 -49.3913 235° Southwest  Level FlightAware Approximate
10:39 59.1445 -49.5779 234° Southwest  Level FlightAware Approximate
10:40 59.0758 -49.7637 234° Southwest  Level FlightAware Approximate
10:41 59.0068 -49.9488 234° Southwest  Level FlightAware Approximate
10:42 58.9376 -50.1332 234° Southwest  Level FlightAware Approximate
10:43 58.8681 -50.3168 234° Southwest  Level FlightAware Approximate
10:44 58.7984 -50.4997 234° Southwest  Level FlightAware Approximate
10:45 58.7284 -50.6819 234° Southwest  Level FlightAware Approximate
10:46 58.6581 -50.8633 233° Southwest  Level FlightAware Approximate
10:47 58.5876 -51.0440 233° Southwest  Level FlightAware Approximate
10:48 58.5169 -51.2240 233° Southwest  Level FlightAware Approximate
10:49 58.4353 -51.3827 226° Southwest  Level Estimated
10:50 58.3535 -51.5407 225° Southwest  Level Estimated
10:51 58.2715 -51.6979 225° Southwest  Level Estimated
10:52 58.1893 -51.8544 225° Southwest  Level Estimated
10:53 58.1070 -52.0101 225° Southwest  Level Estimated
10:53 59.4833 -56.7333 224° Southwest 450 518 34,000  Level Gander Center
10:54 58.0244 -52.1652 225° Southwest  Level Estimated
10:54 59.4000 -56.9000 226° Southwest 450 518 34,000  Level Gander Center
10:55 57.9417 -52.3195 225° Southwest  Level Estimated
10:55 59.3167 -57.0667 226° Southwest 440 506 34,000  Level Gander Center
10:56 57.8587 -52.4731 225° Southwest  Level Estimated
10:56 59.2500 -57.2500 235° Southwest 450 518 34,000  Level Gander Center
10:57 57.7756 -52.6261 224° Southwest  Level Estimated
10:57 59.1500 -57.3833 214° Southwest 440 506 34,000  Level Gander Center
10:58 57.6923 -52.7783 224° Southwest  Level Estimated
10:58 59.0333 -57.5333 214° Southwest 440 506 34,000  Level Gander Center
10:59 57.6089 -52.9298 224° Southwest  Level Estimated
10:59 58.9333 -57.6667 215° Southwest 440 506 34,000  Level Gander Center
11:00 58.8167 -57.7667 204° Southwest 440 506 34,000  Level Gander Center
11:01 58.7167 -57.9167 218° Southwest 450 518 34,000  Level Gander Center
11:02 58.6167 -58.0167 208° Southwest 440 506 34,000  Level Gander Center
11:03 58.5000 -58.1167 204° Southwest 440 506 34,000  Level Gander Center
11:04 58.4000 -58.2667 218° Southwest 440 506 34,000  Level Gander Center
11:05 58.3000 -58.3667 208° Southwest 440 506 34,000  Level Gander Center
11:06 58.1833 -58.5000 211° Southwest 430 495 34,000  Level Gander Center
11:07 58.1000 -58.6000 212° Southwest 430 495 34,000  Level Gander Center
11:08 57.9833 -58.7000 204° Southwest 440 506 34,000  Level Gander Center
11:09 57.8833 -58.8333 215° Southwest 440 506 34,000  Level Gander Center
11:10 57.7833 -58.9333 208° Southwest 430 495 34,000  Level Gander Center
11:11 57.6667 -59.0667 211° Southwest 430 495 34,000  Level Gander Center
11:12 57.5500 -59.1667 205° Southwest 440 506 34,000  Level Gander Center
11:13 57.4500 -59.2667 208° Southwest 440 506 34,000  Level Gander Center
11:14 57.3500 -59.4000 216° Southwest 430 495 34,000  Level Gander Center
11:15 57.2333 -59.5000 205° Southwest 430 495 34,000  Level Gander Center
11:16 57.1500 -59.5833 208° Southwest 430 495 34,000  Level Gander Center
11:17 57.0500 -59.7167 216° Southwest 430 495 34,000  Level Gander Center
11:18 56.9500 -59.8167 209° Southwest 420 483 34,000  Level Gander Center
11:19 56.8333 -59.9333 209° Southwest 420 483 34,000  Level Gander Center
11:20 56.7333 -60.0000 200° South 420 483 34,000  Level Gander Center
11:21 56.6333 -60.1333 216° Southwest 420 483 34,000  Level Gander Center
11:22 56.5333 -60.2167 205° Southwest 420 483 34,000  Level Gander Center
11:23 56.4167 -60.3500 212° Southwest 410 472 34,000  Level Gander Center
11:24 56.3333 -60.4333 209° Southwest 410 472 34,000  Level Gander Center
11:25 56.2333 -60.5333 209° Southwest 410 472 34,000  Level Gander Center
11:26 56.1167 -60.6167 202° Southwest 410 472 34,000  Level Gander Center
11:27 56.0167 -60.7167 209° Southwest 410 472 34,000  Level Gander Center
11:28 55.9167 -60.8000 205° Southwest 410 472 34,000  Level Gander Center
11:29 55.8167 -60.9333 217° Southwest 410 472 34,000  Level Gander Center
11:30 55.7167 -61.0167 205° Southwest 410 472 34,000  Level Gander Center
11:31 55.6167 -61.1000 205° Southwest 410 472 34,000  Level Gander Center
11:32 55.5167 -61.2000 210° Southwest 410 472 34,000  Level Gander Center
11:33 55.4167 -61.2833 205° Southwest 410 472 34,000  Level Gander Center
11:34 55.3167 -61.3667 205° Southwest 410 472 34,000  Level Gander Center
11:35 55.2167 -61.4833 214° Southwest 410 472 34,000  Level Gander Center
11:36 55.1167 -61.5500 201° Southwest 400 460 34,000  Level Gander Center
11:37 55.0167 -61.6667 214° Southwest 400 460 34,000  Level Gander Center
11:38 54.9167 -61.7500 206° Southwest 400 460 34,000  Level Gander Center
11:39 54.8167 -61.8333 206° Southwest 400 460 34,000  Level Gander Center
11:40 54.7333 -61.9167 210° Southwest 400 460 34,000  Level Gander Center
11:41 54.6333 -62.0000 206° Southwest 400 460 34,000  Level Gander Center
11:42 54.5333 -62.0833 206° Southwest 390 449 34,000  Level Gander Center
11:43 54.4333 -62.1667 206° Southwest 390 449 34,000  Level Gander Center
11:44 54.3333 -62.2500 206° Southwest 390 449 34,000  Level Gander Center
11:45 54.2500 -62.3333 210° Southwest 390 449 34,000  Level Gander Center
11:46 54.1500 -62.4167 206° Southwest 390 449 34,000  Level Gander Center
11:47 54.0500 -62.5000 206° Southwest 390 449 34,000  Level Gander Center
11:48 53.9500 -62.5833 206° Southwest 390 449 34,000  Level Gander Center
11:49 53.8500 -62.6667 206° Southwest 380 437 34,000  Level Gander Center
11:50 53.7500 -62.7500 206° Southwest 380 437 34,000  Level Gander Center
11:51 53.6667 -62.8333 211° Southwest 380 437 34,000  Level Gander Center
11:52 53.5667 -62.9167 206° Southwest 380 437 34,000  Level Gander Center
11:53 53.4667 -63.0000 206° Southwest 370 426 34,000  Level Gander Center
11:54 53.3833 -63.0833 211° Southwest 370 426 34,000  Level Gander Center
11:55 53.2833 -63.1500 202° Southwest 370 426 34,000  Level Gander Center
11:56 53.2000 -63.2000 200° South 370 426 34,000  Level Gander Center
11:57 53.1000 -63.2833 207° Southwest 380 437 34,000  Level Gander Center
11:58 53.0167 -63.3667 211° Southwest 370 426 34,000  Level Gander Center
11:59 52.9167 -63.4500 207° Southwest 370 426 34,000  Level Gander Center
12:00 52.8167 -63.5167 202° Southwest 370 426 34,000  Level Gander Center
12:01 52.7333 -63.6000 211° Southwest 360 414 34,000  Level Gander Center
12:02 52.6333 -63.6500 197° South 360 414 34,000  Level Gander Center
12:03 52.5500 -63.7333 211° Southwest 360 414 34,000  Level Gander Center
12:04 52.4667 -63.8000 206° Southwest 350 403 34,000  Level Gander Center
12:05 52.3833 -63.8833 211° Southwest 350 403 34,000  Level Gander Center
12:06 52.2833 -63.9333 197° South 350 403 34,000  Level Gander Center
12:07 52.2167 -64.0167 217° Southwest 340 391 34,000  Level Gander Center
12:08 52.1333 -64.0833 206° Southwest 340 391 34,000  Level Gander Center
12:09 52.0333 -64.1333 197° South 340 391 34,000  Level Gander Center
12:10 51.9333 -64.2167 207° Southwest 340 391 34,000  Level Gander Center
12:11 51.8667 -64.2667 205° Southwest 330 380 34,000  Level Gander Center
12:12 51.7833 -64.3333 206° Southwest 320 368 34,000  Level Gander Center
12:13 51.7000 -64.3833 200° South 320 368 34,000  Level Gander Center
12:14 51.6333 -64.4667 218° Southwest 320 368 34,000  Level Gander Center
12:15 51.5500 -64.5167 200° South 320 368 34,000  Level Gander Center
12:16 51.4667 -64.5833 206° Southwest 320 368 34,000  Level Gander Center
12:17 51.3833 -64.6333 201° Southwest 320 368 34,000  Level Gander Center
12:18 51.3000 -64.7000 207° Southwest 320 368 34,000  Level Gander Center
12:19 51.2167 -64.7500 201° Southwest 320 368 34,000  Level Gander Center
12:20 51.1333 -64.8333 212° Southwest 310 357 34,000  Level Gander Center
12:21 51.0667 -64.8833 205° Southwest 310 357 34,000  Level Gander Center
12:22 50.9833 -64.9167 194° South 300 345 34,000  Level Gander Center
12:23 50.9167 -65.0000 218° Southwest 300 345 34,000  Level Gander Center
12:24 50.8333 -65.0500 201° Southwest 300 345 34,000  Level Gander Center
12:25 50.7667 -65.0833 198° South 300 345 34,000  Level Gander Center
12:26 50.6667 -65.1667 208° Southwest 310 357 34,000  Level Gander Center
12:27 50.6000 -65.2167 205° Southwest 310 357 34,000  Level Gander Center
12:28 50.5167 -65.2500 194° South 310 357 34,000  Level Gander Center
12:29 50.4333 -65.3333 213° Southwest 310 357 34,000  Level Gander Center
12:30 50.3667 -65.3667 198° South 310 357 34,000  Level Gander Center
12:31 50.2833 -65.4500 213° Southwest 310 357 34,000  Level Gander Center
12:32 50.2167 -65.4833 198° South 310 357 34,000 60 Level Gander Center
12:33 50.1167 -65.5333 198° South 310 357 34,200 300 Climbing Gander Center
12:34 50.0500 -65.6000 213° Southwest 310 357 34,600 480 Climbing Moncton Center
12:34 50.0500 -65.6000 213° Southwest 310 357 34,700 360 Climbing Gander Center
12:35 49.9833 -65.6500 206° Southwest 310 357 35,000 120 Climbing Moncton Center
12:36 49.9000 -65.7000 201° Southwest 310 357 35,000  Level Moncton Center
12:37 49.8167 -65.7667 207° Southwest 310 357 35,000  Level Gander Center
12:38 49.7333 -65.8167 201° Southwest 310 357 35,000  Level Gander Center
12:39 49.6667 -65.8833 213° Southwest 310 357 35,000  Level Gander Center
12:40 49.5833 -65.9333 201° Southwest 310 357 35,000  Level Gander Center
12:41 49.5000 -65.9667 195° South 310 357 35,000  Level Gander Center
12:42 49.4167 -66.0333 207° Southwest 310 357 35,000  Level Gander Center
12:43 49.3500 -66.0833 206° Southwest 310 357 35,000  Level Gander Center
12:44 49.2667 -66.1333 201° Southwest 310 357 35,000  Level Gander Center
12:45 49.1833 -66.2000 208° Southwest 310 357 35,000  Level Gander Center
12:46 49.1167 -66.2333 198° South 310 357 35,000  Level Gander Center
12:47 49.0333 -66.3000 208° Southwest 310 357 35,000  Level Gander Center
12:48 48.9500 -66.3500 202° Southwest 310 357 35,000  Level Gander Center
12:49 48.8667 -66.3833 195° South 310 357 35,000  Level Gander Center
12:50 48.8000 -66.4667 219° Southwest 320 368 35,000  Level Gander Center
12:51 48.7167 -66.5000 195° South 310 357 35,000  Level Moncton Center
12:51 48.7167 -66.5000 195° South 320 368 35,000  Level Gander Center
12:52 48.6333 -66.5500 202° Southwest 320 368 35,000  Level Moncton Center
12:53 48.5667 -66.6000 206° Southwest 320 368 35,000  Level Moncton Center
12:54 48.4833 -66.6667 208° Southwest 320 368 35,000  Level Moncton Center
12:55 48.4000 -66.7167 202° Southwest 320 368 35,000  Level Moncton Center
12:56 48.3167 -66.7667 202° Southwest 320 368 35,000  Level Moncton Center
12:57 48.2333 -66.8167 202° Southwest 330 380 35,000  Level Moncton Center
12:58 48.1500 -66.8833 208° Southwest 330 380 35,000  Level Moncton Center
12:59 48.0500 -66.9333 198° South 330 380 35,000  Level Moncton Center
13:00 47.9667 -66.9667 195° South 330 380 35,000  Level Moncton Center
13:01 47.8833 -67.0500 214° Southwest 330 380 35,000  Level Moncton Center
13:02 47.8167 -67.0833 199° South 330 380 35,000  Level Moncton Center
13:03 47.7167 -67.1333 199° South 330 380 35,000  Level Moncton Center
13:04 47.6500 -67.2000 214° Southwest 330 380 35,000  Level Moncton Center
13:05 47.5500 -67.2500 199° South 330 380 35,000  Level Moncton Center
13:06 47.4667 -67.3000 202° Southwest 340 391 35,000  Level Moncton Center
13:07 47.3833 -67.3667 208° Southwest 330 380 35,000  Level Moncton Center
13:09 47.3008 -67.4183 203° Southwest 334 384 35,000  Level Boston Center
13:10 47.2164 -67.4728 204° Southwest 332 382 35,000  Level Boston Center
13:10 47.1167 -67.5167 197° South 330 380 35,000  Level Moncton Center
13:11 47.0500 -67.5667 207° Southwest 330 380 35,000  Level Moncton Center
13:12 46.9500 -67.6333 204° Southwest 330 380 35,000  Level Moncton Center
13:13 46.8833 -67.6833 207° Southwest 320 368 35,000  Level Moncton Center
13:14 46.7833 -67.7167 193° South 330 380 35,000  Level Moncton Center
13:15 46.7167 -67.7833 214° Southwest 330 380 35,000  Level Moncton Center
13:16 46.6167 -67.8333 199° South 340 391 35,000  Level Moncton Center
13:17 46.5333 -67.8833 202° Southwest 330 380 35,000  Level Moncton Center
13:18 46.4500 -67.9167 195° South 330 380 35,000  Level Moncton Center
13:19 46.3500 -67.9833 205° Southwest 330 380 35,000  Level Moncton Center
13:20 46.3450 -68.0039 251° West 332 382 35,000  Level Boston Center
13:21 46.2575 -68.0536 201° Southwest 334 384 35,000  Level Boston Center
13:22 46.1722 -68.1050 203° Southwest 332 382 35,000  Level Boston Center
13:23 46.0858 -68.1558 202° Southwest 334 384 35,000  Level Boston Center
13:24 45.9894 -68.2133 203° Southwest 335 386 35,000  Level Boston Center
13:25 45.9025 -68.2647 202° Southwest 338 389 35,000  Level Boston Center
13:26 45.8153 -68.3153 202° Southwest 338 389 35,000  Level Boston Center
13:32 45.2808 -68.6246 202° Southwest 350 403 35,000  Level FlightAware ADS-B (CYQI)
13:32 45.2203 -68.6593 202° Southwest 350 403 35,000  Level FlightAware ADS-B (CYQI)
13:33 45.1721 -68.6867 202° Southwest 352 405 35,000  Level FlightAware ADS-B (CYQI)
13:34 45.1116 -68.7212 202° Southwest 354 407 35,000  Level FlightAware ADS-B (CYQI)
13:34 45.0412 -68.7613 202° Southwest 356 410 35,000  Level FlightAware ADS-B (CYQI)
13:35 44.9928 -68.7888 202° Southwest 356 410 35,000 120 Level FlightAware ADS-B (CYQI)
13:35 44.9323 -68.8230 202° Southwest 355 409 35,200 480 Climbing FlightAware ADS-B (CYQI)
13:36 44.8704 -68.8579 202° Southwest 356 410 35,600 480 Climbing FlightAware ADS-B (CYQI)
13:37 44.8091 -68.8958 204° Southwest 352 405 35,900 240 Climbing FlightAware ADS-B (CYQI)
13:38 44.7735 -68.9205 206° Southwest 352 405 36,000 60 Climbing FlightAware ADS-B (CYQI)
13:38 44.6982 -68.9724 206° Southwest 350 403 36,000  Level FlightAware ADS-B (CYQI)
13:39 44.6450 -69.0085 206° Southwest 354 407 36,000  Level FlightAware ADS-B (CYQI)
13:39 44.5909 -69.0453 206° Southwest 357 411 36,000  Level FlightAware ADS-B (CYQI)
13:40 44.5243 -69.0904 206° Southwest 356 410 36,000  Level FlightAware ADS-B (CYQI)
13:41 44.4700 -69.1271 206° Southwest 355 409 36,000  Level FlightAware ADS-B (CYQI)
13:41 44.4083 -69.1687 206° Southwest 357 411 36,000  Level FlightAware ADS-B (CYQI)
13:42 44.3523 -69.2065 206° Southwest 357 411 36,000  Level FlightAware ADS-B (CYQI)
13:43 44.3156 -69.2311 206° Southwest 357 411 36,000  Level FlightAware ADS-B
13:43 44.2616 -69.2673 206° Southwest 357 411 36,000  Level FlightAware ADS-B (CYQI)
13:44 44.2263 -69.2910 206° Southwest 357 411 36,000  Level FlightAware ADS-B
13:44 44.1777 -69.3235 206° Southwest 358 412 36,000  Level FlightAware ADS-B
13:45 44.1128 -69.3668 206° Southwest 358 412 36,000  Level FlightAware ADS-B (CYQI)
13:45 44.0745 -69.3923 206° Southwest 359 413 36,000  Level FlightAware ADS-B
13:46 44.0154 -69.4317 206° Southwest 361 415 36,000  Level FlightAware ADS-B
13:47 43.9552 -69.4715 206° Southwest 359 413 36,000  Level FlightAware ADS-B
13:47 43.9036 -69.5057 206° Southwest 359 413 36,000  Level FlightAware ADS-B (KBOS)
13:48 43.8520 -69.5399 206° Southwest 358 412 36,000  Level FlightAware ADS-B
13:49 43.7788 -69.5881 205° Southwest 360 414 36,000  Level FlightAware ADS-B (KBOS)
13:49 43.7233 -69.6245 205° Southwest 361 415 36,000  Level FlightAware ADS-B (KBOS)
13:50 43.6604 -69.6658 205° Southwest 358 412 36,000  Level FlightAware ADS-B (KBOS)
13:50 43.6348 -69.6825 205° Southwest 344 396 36,000  Level FlightAware ADS-B
13:50 43.6055 -69.7017 205° Southwest 340 391 36,000  Level FlightAware ADS-B
13:51 43.5504 -69.7377 205° Southwest 341 392 36,000  Level FlightAware ADS-B
13:52 43.5067 -69.7663 205° Southwest 340 391 36,000  Level FlightAware ADS-B
13:52 43.4638 -69.7943 205° Southwest 342 394 36,000  Level FlightAware ADS-B
13:53 43.4308 -69.8144 204° Southwest 356 410 36,000  Level FlightAware ADS-B (KBOS)
13:53 43.3964 -69.8297 198° South 359 413 36,000  Level FlightAware ADS-B (KBOS)
13:53 43.3490 -69.8438 192° South 369 425 36,000  Level FlightAware ADS-B (CYQI)
13:54 43.3103 -69.8499 187° South 374 430 36,000  Level FlightAware ADS-B (KBOS)
13:54 43.2543 -69.8587 187° South 374 430 36,000  Level FlightAware ADS-B
13:55 43.2026 -69.8668 187° South 375 432 36,000  Level FlightAware ADS-B (KBOS)
13:55 43.1482 -69.8749 186° South 376 433 36,000  Level FlightAware ADS-B
13:56 43.0964 -69.8825 186° South 376 433 36,000  Level FlightAware ADS-B (KBOS)
13:56 43.0393 -69.8909 186° South 377 434 36,000  Level FlightAware ADS-B (KBOS)
13:57 42.9441 -69.9047 186° South 371 427 36,000  Level FlightAware ADS-B
13:58 42.8752 -69.9148 186° South 380 437 36,000  Level FlightAware ADS-B (KBOS)
13:59 42.8005 -69.9255 186° South 382 440 36,000  Level FlightAware ADS-B (KBOS)
13:59 42.7296 -69.9358 186° South 383 441 36,000  Level FlightAware ADS-B (KBOS)
14:00 42.6596 -69.9458 186° South 384 442 36,000  Level FlightAware ADS-B (KBOS)
14:00 42.6668 -69.9448 North 386 444 36,000  Level FlightAware ADS-B (KOWD)
14:01 42.5502 -69.9616 186° South 388 447 36,000  Level FlightAware ADS-B (KBOS)
14:02 42.4778 -69.9719 186° South 389 448 36,000  Level FlightAware ADS-B (KBOS)
14:02 42.4073 -69.9820 186° South 390 449 36,000  Level FlightAware ADS-B (KBOS)
14:03 42.3315 -69.9927 186° South 392 451 36,000  Level FlightAware ADS-B (KBOS)
14:04 42.2752 -70.0008 186° South 394 453 36,000  Level FlightAware ADS-B (ZSSL)
14:04 42.2157 -70.0092 186° South 394 453 36,000  Level FlightAware ADS-B (KBOS)
14:05 42.1426 -70.0216 187° South 388 447 36,000  Level FlightAware ADS-B (ZSSL)
14:05 42.1066 -70.0332 193° South 379 436 36,000  Level FlightAware ADS-B (KBOS)
14:06 42.0529 -70.0593 200° South 373 429 36,000  Level FlightAware ADS-B
14:06 42.0049 -70.0926 207° Southwest 364 419 36,000  Level FlightAware ADS-B (ZSSL)
14:07 41.9636 -70.1303 214° Southwest 357 411 36,000  Level FlightAware ADS-B (KOWD)
14:07 41.9252 -70.1749 221° Southwest 350 403 36,000  Level FlightAware ADS-B (KBOS)
14:08 41.8846 -70.2332 227° Southwest 347 399 36,000  Level FlightAware ADS-B (ZSSL)
14:08 41.8479 -70.2863 227° Southwest 347 399 36,000  Level FlightAware ADS-B (ZSSL)
14:09 41.8089 -70.3431 227° Southwest 350 403 36,000  Level FlightAware ADS-B (KBOS)
14:09 41.7921 -70.3676 227° Southwest 344 396 36,000  Level FlightAware ADS-B
14:10 41.7474 -70.4328 227° Southwest 350 403 36,000  Level FlightAware ADS-B (ZSSL)
14:11 41.7031 -70.4971 227° Southwest 351 404 36,000  Level FlightAware ADS-B (KOWD)
14:11 41.6653 -70.5518 227° Southwest 352 405 36,000  Level FlightAware ADS-B (ZSSL)
14:12 41.6453 -70.5807 227° Southwest 352 405 36,000  Level FlightAware ADS-B (KBOS)
14:12 41.5914 -70.6589 227° Southwest 350 403 36,000  Level FlightAware ADS-B (KOWD)
14:13 41.5662 -70.6951 227° Southwest 349 402 36,000  Level FlightAware ADS-B (KOWD)
14:14 41.5060 -70.7820 227° Southwest 350 403 36,000  Level FlightAware ADS-B (ZSSL)
14:14 41.4838 -70.8138 227° Southwest 348 400 36,000 -540 Level FlightAware ADS-B (KOWD)
14:15 41.4047 -70.9270 227° Southwest 355 409 35,200 -960 Descending FlightAware ADS-B (ZSSL)
14:16 41.3671 -70.9809 227° Southwest 356 410 34,700 -900 Descending FlightAware ADS-B (ZSSL)
14:16 41.3213 -71.0462 227° Southwest 359 413 34,100 -540 Descending FlightAware ADS-B (ZSSL)
14:17 41.2782 -71.1103 228° Southwest 348 400 34,000 -120 Descending FlightAware ADS-B
14:18 41.2438 -71.1835 238° Southwest 355 409 34,000  Level FlightAware ADS-B
14:18 41.2224 -71.2533 248° West 357 411 34,000  Level FlightAware ADS-B (ZSSL)
14:19 41.2040 -71.3199 250° West 356 410 34,000  Level FlightAware ADS-B (ZSSL)
14:19 41.1879 -71.3769 249° West 352 405 34,000  Level FlightAware ADS-B
14:20 41.1689 -71.4448 250° West 353 406 34,000  Level FlightAware ADS-B (ZSSL)
14:20 41.1640 -71.4621 249° West 350 403 34,000  Level FlightAware ADS-B
14:20 41.1405 -71.5199 242° Southwest 353 406 34,000  Level FlightAware ADS-B (ZSSL)
14:21 41.0939 -71.5853 227° Southwest 354 407 34,000  Level FlightAware ADS-B (ZSSL)
14:22 41.0647 -71.6268 227° Southwest 357 411 34,000  Level FlightAware ADS-B (KSNC)
14:23 41.1623 -71.4680 51° Northeast 352 405 34,000  Level FlightAware ADS-B (KSNC)
14:27 40.7265 -72.1009 228° Southwest 362 417 34,000  Level FlightAware ADS-B (KSNC)
14:27 40.6652 -72.1861 227° Southwest 362 417 34,000  Level FlightAware ADS-B (KSNC)
14:29 40.5718 -72.3154 226° Southwest 364 419 34,000  Level FlightAware ADS-B (KSNC)
14:29 40.5300 -72.3733 226° Southwest 366 421 34,000  Level FlightAware ADS-B (KSNC)
14:30 40.4760 -72.4477 226° Southwest 366 421 34,000  Level FlightAware ADS-B (KSNC)
14:31 40.4299 -72.5110 226° Southwest 365 420 34,000  Level FlightAware ADS-B (KSNC)
14:32 40.3804 -72.5789 226° Southwest 364 419 34,000  Level FlightAware ADS-B (KSNC)
14:34 40.2035 -72.8203 226° Southwest 360 414 34,000  Level FlightAware ADS-B (KWWD)
14:35 40.1662 -72.8708 226° Southwest 360 414 34,000  Level FlightAware ADS-B (KWWD)
14:35 40.1228 -72.9299 226° Southwest 367 422 34,000  Level FlightAware ADS-B (KSNC)
14:35 40.1084 -72.9493 226° Southwest 367 422 34,000  Level FlightAware ADS-B (KSNC)
14:36 40.0488 -73.0299 226° Southwest 369 425 34,000  Level FlightAware ADS-B (KSNC)
14:37 39.9882 -73.1116 226° Southwest 369 425 34,000  Level FlightAware ADS-B (KWWD)
14:38 39.9419 -73.1739 226° Southwest 369 425 34,000  Level FlightAware ADS-B (KWWD)
14:38 39.8890 -73.2323 220° Southwest 372 428 34,000  Level FlightAware ADS-B (KWWD)
14:39 39.8368 -73.2800 215° Southwest 372 428 34,000  Level FlightAware ADS-B (KWWD)
14:40 39.7913 -73.3217 215° Southwest 371 427 34,000  Level FlightAware ADS-B (KSNC)
14:40 39.7480 -73.3613 215° Southwest 370 426 34,000  Level FlightAware ADS-B (KWWD)
14:41 39.7092 -73.3967 215° Southwest 370 426 34,000  Level FlightAware ADS-B (KSNC)
14:41 39.6622 -73.4396 215° Southwest 372 428 34,000  Level FlightAware ADS-B (KWWD)
14:42 39.6199 -73.4781 215° Southwest 372 428 34,000  Level FlightAware ADS-B (KSNC)
14:42 39.5527 -73.5391 215° Southwest 371 427 34,000  Level FlightAware ADS-B (KWWD)
14:43 39.5105 -73.5773 215° Southwest 371 427 34,000  Level FlightAware ADS-B (KSNC)
14:43 39.4700 -73.6140 215° Southwest 373 429 34,000  Level FlightAware ADS-B (KSNC)
14:44 39.4090 -73.6691 215° Southwest 373 429 34,000  Level FlightAware ADS-B (KWWD)
14:45 39.3529 -73.7196 215° Southwest 373 429 34,000  Level FlightAware ADS-B (KWWD)
14:45 39.2951 -73.7717 215° Southwest 373 429 34,000  Level FlightAware ADS-B (KWWD)
14:46 39.2452 -73.8165 215° Southwest 374 430 34,000  Level FlightAware ADS-B (KWWD)
14:47 39.1897 -73.8663 215° Southwest 374 430 34,000  Level FlightAware ADS-B (KWWD)
14:47 39.1268 -73.9226 215° Southwest 375 432 34,000  Level FlightAware ADS-B (KWWD)
14:48 39.0676 -73.9757 215° Southwest 375 432 34,000  Level FlightAware ADS-B (KWWD)
14:49 39.0104 -74.0267 215° Southwest 375 432 34,000  Level FlightAware ADS-B (KWWD)
14:49 38.9557 -74.0754 215° Southwest 376 433 34,000  Level FlightAware ADS-B (KWWD)
14:50 38.8956 -74.1287 215° Southwest 376 433 34,000  Level FlightAware ADS-B (KWWD)
14:51 38.8397 -74.1781 215° Southwest 376 433 34,000  Level FlightAware ADS-B (KWWD)
14:51 38.7821 -74.2291 215° Southwest 376 433 34,000  Level FlightAware ADS-B (KWWD)
14:52 38.7242 -74.2802 215° Southwest 375 432 34,000  Level FlightAware ADS-B (KWWD)
14:53 38.6694 -74.3285 215° Southwest 375 432 34,000  Level FlightAware ADS-B (KWWD)
14:53 38.6103 -74.3804 214° Southwest 376 433 34,000  Level FlightAware ADS-B (KWWD)
14:54 38.5534 -74.4304 214° Southwest 377 434 34,000  Level FlightAware ADS-B (KWWD)
14:55 38.4952 -74.4815 214° Southwest 371 427 34,000  Level FlightAware ADS-B (KWWD)
14:55 38.4401 -74.5295 214° Southwest 370 426 34,000  Level FlightAware ADS-B (KWWD)
14:56 38.3801 -74.5820 214° Southwest 370 426 34,000  Level FlightAware ADS-B (KWWD)
14:57 38.3227 -74.6321 214° Southwest 371 427 34,000  Level FlightAware ADS-B (KWWD)
14:57 38.2652 -74.6820 214° Southwest 370 426 34,000  Level FlightAware ADS-B (KWWD)
14:58 38.2415 -74.7025 214° Southwest 377 434 34,000  Level FlightAware ADS-B (KSBY)
14:59 38.1547 -74.7776 214° Southwest 372 428 34,000  Level FlightAware ADS-B (KWWD)
14:59 38.0932 -74.8309 214° Southwest 374 430 34,000  Level FlightAware ADS-B (KWWD)
15:00 38.0359 -74.8802 214° Southwest 376 433 34,000  Level FlightAware ADS-B (KWWD)
15:01 37.9895 -74.9202 214° Southwest 376 433 34,000  Level FlightAware ADS-B (KWWD)
15:01 37.9208 -74.9792 214° Southwest 376 433 34,000  Level FlightAware ADS-B (KWWD)
15:02 37.8572 -75.0338 214° Southwest 374 430 34,000  Level FlightAware ADS-B (KWWD)
15:03 37.7990 -75.0835 214° Southwest 375 432 34,000  Level FlightAware ADS-B (KWWD)
15:03 37.7453 -75.1293 214° Southwest 377 434 34,000  Level FlightAware ADS-B (KWWD)
15:04 37.6827 -75.1827 214° Southwest 385 443 34,000  Level FlightAware ADS-B (KWWD)
15:05 37.6192 -75.2366 214° Southwest 385 443 34,000  Level FlightAware ADS-B (KWWD)
15:05 37.5611 -75.2860 214° Southwest 377 434 34,000  Level FlightAware ADS-B (KWWD)
15:06 37.5083 -75.3307 214° Southwest 377 434 34,000  Level FlightAware ADS-B (KWWD)
15:07 37.4450 -75.3841 214° Southwest 377 434 34,000  Level FlightAware ADS-B (KWWD)
15:07 37.3920 -75.4289 214° Southwest 384 442 34,000  Level FlightAware ADS-B (KWWD)
15:08 37.3315 -75.4799 214° Southwest 385 443 34,000  Level FlightAware ADS-B (KWWD)
15:09 37.2829 -75.5208 214° Southwest 385 443 34,000  Level FlightAware ADS-B (KWWD)
15:09 37.2098 -75.5821 214° Southwest 385 443 34,000  Level FlightAware ADS-B (KWWD)
15:11 37.0405 -75.7236 214° Southwest 376 433 34,000  Level FlightAware ADS-B (KWWD)
15:12 36.9409 -75.8066 214° Southwest 376 433 34,000  Level FlightAware ADS-B (KWWD)
15:13 36.8799 -75.8572 214° Southwest 384 442 34,000  Level FlightAware ADS-B (KWWD)
15:14 36.7979 -75.9252 214° Southwest 383 441 34,000  Level FlightAware ADS-B (KWWD)
15:15 36.7038 -76.0030 214° Southwest 385 443 34,000  Level FlightAware ADS-B (KWWD)
15:16 36.6491 -76.0480 213° Southwest 387 445 34,000  Level FlightAware ADS-B (KWWD)
15:16 36.5875 -76.0986 213° Southwest 387 445 34,000  Level FlightAware ADS-B (KWWD)
15:17 36.5187 -76.1551 213° Southwest 386 444 34,000  Level FlightAware ADS-B (KWWD)
15:18 36.4693 -76.1956 213° Southwest 388 447 34,000  Level FlightAware ADS-B (KWWD)
15:19 36.3564 -76.2883 213° Southwest 394 453 34,000  Level Washington Center
15:20 36.2683 -76.3572 212° Southwest 394 453 34,000  Level Washington Center
15:21 36.1781 -76.4333 214° Southwest 394 453 34,000  Level Washington Center
15:26 35.6558 -76.7687 214° Southwest 400 460 34,000  Level FlightAware ADS-B
15:27 35.5846 -76.8012 200° South 402 463 34,000  Level FlightAware ADS-B
15:28 35.5050 -76.8372 200° South 402 463 34,000  Level FlightAware ADS-B
15:29 35.4386 -76.8672 200° South 403 464 34,000  Level FlightAware ADS-B
15:29 35.3684 -76.8989 200° South 404 465 34,000  Level FlightAware ADS-B
15:30 35.2969 -76.9311 200° South 405 466 34,000  Level FlightAware ADS-B
15:31 35.2268 -76.9626 200° South 405 466 34,000  Level FlightAware ADS-B
15:31 35.1542 -76.9951 200° South 406 467 34,000  Level FlightAware ADS-B
15:32 35.0868 -77.0253 200° South 407 468 34,000  Level FlightAware ADS-B
15:33 35.0133 -77.0580 200° South 406 467 34,000  Level FlightAware ADS-B
15:33 34.9449 -77.0886 200° South 406 467 34,000  Level FlightAware ADS-B
15:34 34.8745 -77.1198 200° South 406 467 34,000  Level FlightAware ADS-B
15:34 34.8121 -77.1476 200° South 407 468 34,000  Level FlightAware ADS-B
15:35 34.7042 -77.1954 200° South 410 472 34,000  Level FlightAware ADS-B
15:37 34.5533 -77.2620 200° South 412 474 34,000  Level FlightAware ADS-B
15:38 34.4837 -77.2927 200° South 412 474 34,000  Level FlightAware ADS-B
15:38 34.4250 -77.3185 200° South 412 474 34,000  Level FlightAware ADS-B
15:39 34.3431 -77.3544 200° South 413 475 34,000  Level FlightAware ADS-B
15:40 34.2144 -77.4103 200° South 409 471 34,000  Level Washington Center
15:42 34.0378 -77.4875 200° South 417 480 34,000  Level Jacksonville Center
15:43 33.9269 -77.5342 199° South 422 486 34,000  Level Jacksonville Center
15:44 33.8183 -77.5808 200° South 422 486 34,000  Level Jacksonville Center
15:45 33.7097 -77.6275 200° South 422 486 34,000  Level Jacksonville Center
15:46 33.5994 -77.6789 201° Southwest 422 486 34,000  Level Jacksonville Center
15:47 33.4864 -77.7253 199° South 422 486 34,000  Level Jacksonville Center
15:48 33.3797 -77.7714 200° South 422 486 34,000  Level Jacksonville Center
15:49 33.2689 -77.8175 199° South 422 486 34,000  Level Jacksonville Center
15:50 33.1583 -77.8658 200° South 422 486 34,000  Level Jacksonville Center
15:51 33.0494 -77.9092 198° South 422 486 34,000  Level Jacksonville Center
15:52 32.9364 -77.9550 199° South 422 486 34,000  Level Jacksonville Center
15:53 32.8258 -78.0056 201° Southwest 422 486 34,000  Level Jacksonville Center
15:54 32.7147 -78.0511 199° South 422 486 34,000  Level Jacksonville Center
15:55 32.6017 -78.0967 199° South 422 486 34,000  Level Jacksonville Center
15:56 32.4928 -78.1442 200° South 422 486 34,000  Level Jacksonville Center
15:57 32.3797 -78.1919 200° South 422 486 34,000  Level Jacksonville Center
15:58 32.2689 -78.2419 201° Southwest 422 486 34,000  Level Jacksonville Center
15:59 32.1558 -78.2894 200° South 428 493 34,000  Level Jacksonville Center
16:00 32.0408 -78.3392 200° South 428 493 34,000  Level Jacksonville Center
16:01 31.9278 -78.3864 200° South 428 493 34,000  Level Jacksonville Center
16:02 31.8192 -78.4456 205° Southwest 434 499 34,000  Level Jacksonville Center
16:03 31.7192 -78.5136 210° Southwest 428 493 34,000  Level Jacksonville Center
16:04 31.6106 -78.5678 203° Southwest 428 493 34,000  Level Jacksonville Center
16:05 31.4931 -78.6144 199° South 428 493 34,000  Level Jacksonville Center
16:06 31.3775 -78.6564 197° South 433 498 34,000  Level Jacksonville Center
16:07 31.2642 -78.6978 197° South 438 504 34,000  Level Jacksonville Center
16:08 31.1467 -78.7394 197° South 438 504 34,000  Level Jacksonville Center
16:09 31.0311 -78.7833 198° South 438 504 34,000  Level Jacksonville Center
16:10 30.9133 -78.8225 196° South 438 504 34,000  Level Jacksonville Center
16:11 30.7978 -78.8636 197° South 438 504 34,000  Level Jacksonville Center
16:12 30.6114 -78.9300 197° South 435 501 34,000  Level Miami Center
16:13 30.4961 -78.9711 197° South 442 509 34,000  Level Miami Center
16:14 30.3892 -79.0100 197° South 442 509 34,000  Level Miami Center
16:15 30.2758 -79.0606 201° Southwest 442 509 34,000  Level Miami Center
16:16 30.1561 -79.1108 200° South 452 520 34,000  Level Miami Center
16:17 30.0428 -79.1611 201° Southwest 452 520 34,000  Level Miami Center
16:18 29.9147 -79.2231 203° Southwest 451 519 34,000  Level Miami Center
16:19 29.8011 -79.2756 202° Southwest 451 519 34,000  Level Miami Center
16:20 29.6836 -79.3206 198° South 451 519 34,000  Level Miami Center
16:21 29.5658 -79.3728 201° Southwest 451 519 34,000  Level Miami Center
16:27 28.8826 -79.6270 201° Southwest 441 507 34,000  Level FlightAware ADS-B (KMCO)
16:28 28.8099 -79.6536 198° South 442 509 34,000  Level FlightAware ADS-B (KMCO)
16:29 28.6853 -79.6991 198° South 442 509 34,000  Level FlightAware ADS-B (KMCO)
16:29 28.6167 -79.7241 198° South 442 509 34,000  Level FlightAware ADS-B (KMCO)
16:30 28.5264 -79.7570 198° South 442 509 34,000  Level FlightAware ADS-B (KSFB)
16:31 28.4680 -79.7782 198° South 443 510 34,000  Level FlightAware ADS-B (KMCO)
16:31 28.3982 -79.8036 198° South 445 512 34,000  Level FlightAware ADS-B (KMCO)
16:32 28.3305 -79.8280 198° South 446 513 34,000  Level FlightAware ADS-B (KSFB)
16:32 28.2767 -79.8476 198° South 447 514 34,000  Level FlightAware ADS-B (KMCO)
16:33 28.1991 -79.8758 198° South 445 512 34,000  Level FlightAware ADS-B (KMCO)
16:34 28.1093 -79.9081 198° South 446 513 34,000  Level FlightAware ADS-B (KMCO)
16:34 28.0278 -79.9375 198° South 447 514 34,000  Level FlightAware ADS-B (KMCO)
16:35 27.9579 -79.9625 198° South 446 513 34,000  Level FlightAware ADS-B (KMCO)
16:36 27.8671 -79.9951 198° South 443 510 34,000  Level FlightAware ADS-B (KMCO)
16:36 27.7894 -80.0231 198° South 443 510 34,000  Level FlightAware ADS-B (KMCO)
16:37 27.7084 -80.0520 198° South 441 507 34,000  Level FlightAware ADS-B (KMCO)
16:38 27.6217 -80.0830 198° South 441 507 34,000  Level FlightAware ADS-B (KMCO)
16:38 27.5460 -80.1101 198° South 440 506 34,000  Level FlightAware ADS-B (KMCO)
16:39 27.4633 -80.1396 198° South 442 509 34,000  Level FlightAware ADS-B (KMCO)
16:40 27.3897 -80.1658 198° South 445 512 34,000  Level FlightAware ADS-B (KMCO)
16:41 27.3218 -80.1899 198° South 445 512 34,000  Level FlightAware ADS-B (KMCO)
16:41 27.2390 -80.2193 198° South 443 510 34,000  Level FlightAware ADS-B (KMCO)
16:42 27.1647 -80.2456 197° South 445 512 34,000  Level FlightAware ADS-B (KMCO)
16:42 27.1078 -80.2658 197° South 446 513 34,000  Level Miami Center
16:43 26.9919 -80.3092 198° South 446 513 34,000  Level Miami Center
16:49 26.3093 -80.5463 198° South 452 520 34,000  Level FlightAware ADS-B (KMCO)
16:50 26.1514 -80.6039 198° South 445 512 34,000  Level Miami Center
16:51 26.0314 -80.6442 197° South 445 512 34,000  Level Miami Center
16:52 25.9239 -80.6822 198° South 450 518 34,000  Level Miami Center
16:53 25.8100 -80.7269 199° South 445 512 34,000  Level Miami Center
16:54 25.7136 -80.8161 220° Southwest 440 506 34,000  Level Miami Center
16:55 25.6211 -80.9075 222° Southwest 445 512 34,000  Level Miami Center
16:56 25.5353 -80.9944 222° Southwest 435 501 34,000  Level Miami Center
16:57 25.4450 -81.0833 222° Southwest 435 501 34,000  Level Miami Center
16:58 25.3589 -81.1725 223° Southwest 430 495 34,000  Level Miami Center
16:59 25.2706 -81.2611 222° Southwest 430 495 34,000  Level Miami Center
17:00 25.1825 -81.3475 222° Southwest 430 495 34,000  Level Miami Center
17:01 25.0919 -81.4358 221° Southwest 430 495 34,000  Level Miami Center
17:02 25.0056 -81.5267 224° Southwest 435 501 34,000  Level Miami Center
17:03 24.9172 -81.6172 223° Southwest 435 501 34,000  Level Miami Center
17:04 24.8308 -81.7031 222° Southwest 429 494 34,000  Level Miami Center
17:05 24.7442 -81.7933 223° Southwest 429 494 34,000  Level Miami Center
17:06 24.6517 -81.8764 219° Southwest 434 499 34,000 -120 Level Miami Center
17:07 24.5608 -81.9664 222° Southwest 434 499 33,800 -840 Descending Miami Center
17:08 24.4725 -82.0494 221° Southwest 427 491 32,400 -1,680 Descending Miami Center
17:09 24.3881 -82.1325 222° Southwest 421 484 30,500 -1,860 Descending Miami Center
17:10 24.3078 -82.2158 223° Southwest 415 478 28,700 -1,800 Descending Miami Center
17:11 24.2275 -82.2989 223° Southwest 409 471 27,000 -1,800 Descending Miami Center
17:12 24.1375 -82.3656 214° Southwest 399 459 25,200 -1,920 Descending Miami Center
17:13 24.0525 -82.4594 225° Southwest 399 459 23,200 -1,920 Descending Miami Center
17:14 23.9608 -82.5122 208° Southwest 387 445 21,400 -1,800 Descending Miami Center
17:16 23.8300 -82.4927 172° South  Level FlightAware Approximate
17:23 23.0753 -82.4051 170° South  Level FlightAware Approximate
17:24 22.9891 -82.4091 180° South  Level Estimated
17:25 22.9891 -82.4091 180° South  Level Estimated
17:26 22.9891 -82.4091 180° South  Level Estimated
17:27 22.9891 -82.4091 180° South  Level Estimated
17:28 22.9891 -82.4091 180° South  Level Estimated
17:29 22.9891 -82.4091 180° South  Level Estimated
17:30 22.9891 -82.4091 180° South  Level Estimated
17:31 22.9891 -82.4091 180° South  Level Estimated
17:32 22.9891 -82.4091 180° South  Level Estimated
17:33 22.9891 -82.4091 180° South  Level Estimated
17:34 22.9891 -82.4091 180° South  Level Estimated
17:35 22.9891 -82.4091 180° South  Level Estimated
17:36 22.9891 -82.4091 180° South  Level Estimated
17:37 22.9891 -82.4091 180° South  Level Estimated
17:38 22.9891 -82.4091 180° South  Level Estimated
17:39 22.9891 -82.4091 180° South  Level Estimated
17:40 22.9891 -82.4091 180° South  Level Estimated
17:41 22.9891 -82.4091 180° South  Level Estimated
17:42 22.9891 -82.4091 180° South  Level Estimated
17:43 22.9891 -82.4091 180° South  Level Estimated
17:44 22.9891 -82.4091 180° South  Level Estimated
17:45 22.9891 -82.4091 180° South  Level Estimated